createdAt,value
2023-12-30T00:03:51.427Z,99.90
2023-12-30T00:08:53.818Z,99.90
2023-12-30T00:13:57.324Z,99.90
2023-12-30T00:18:59.833Z,99.90
2023-12-30T00:24:01.992Z,99.90
2023-12-30T00:29:05.505Z,99.90
2023-12-30T00:34:08.119Z,99.90
2023-12-30T00:39:10.260Z,99.90
2023-12-30T00:44:14.805Z,99.90
2023-12-30T00:49:16.953Z,99.90
2023-12-30T00:54:19.265Z,99.90
2023-12-30T00:59:22.433Z,99.90
2023-12-30T01:04:24.374Z,99.90
2023-12-30T01:09:26.739Z,99.90
2023-12-30T01:14:30.126Z,99.90
2023-12-30T01:19:32.286Z,99.90
2023-12-30T01:24:34.230Z,99.90
2023-12-30T01:29:37.762Z,99.90
2023-12-30T01:34:40.120Z,99.90
2023-12-30T01:39:42.281Z,99.90
2023-12-30T01:44:45.545Z,99.90
2023-12-30T01:49:47.631Z,99.90
2023-12-30T01:54:49.489Z,99.90
2023-12-30T01:59:53.666Z,99.90
2023-12-30T02:04:56.113Z,99.90
2023-12-30T02:09:58.364Z,99.90
2023-12-30T02:15:14.867Z,99.90
2023-12-30T02:20:16.983Z,99.90
2023-12-30T02:25:20.428Z,99.90
2023-12-30T02:30:25.305Z,99.90
2023-12-30T02:35:28.832Z,99.90
2023-12-30T02:40:32.179Z,99.90
2023-12-30T02:45:34.468Z,99.90
2023-12-30T02:50:36.498Z,99.90
2023-12-30T02:55:40.060Z,99.90
2023-12-30T03:00:42.456Z,99.90
2023-12-30T03:05:44.769Z,99.90
2023-12-30T03:10:48.984Z,99.90
2023-12-30T03:15:51.409Z,99.90
2023-12-30T03:20:54.062Z,99.90
2023-12-30T03:25:57.488Z,99.90
2023-12-30T03:30:59.962Z,99.90
2023-12-30T03:36:02.181Z,99.90
2023-12-30T03:41:05.957Z,99.90
2023-12-30T03:46:08.219Z,99.90
2023-12-30T03:51:10.597Z,99.90
2023-12-30T03:56:14.196Z,99.90
2023-12-30T04:01:16.275Z,99.90
2023-12-30T04:06:19.067Z,99.90
2023-12-30T04:11:22.540Z,99.90
2023-12-30T04:16:24.745Z,99.90
2023-12-30T04:21:26.943Z,99.90
2023-12-30T04:26:30.345Z,99.90
2023-12-30T04:31:32.621Z,99.90
2023-12-30T04:36:34.605Z,99.90
2023-12-30T04:41:38.128Z,99.90
2023-12-30T04:46:40.502Z,99.90
2023-12-30T04:51:42.493Z,99.90
2023-12-30T04:56:45.769Z,99.90
2023-12-30T05:01:47.834Z,99.90
2023-12-30T05:06:49.988Z,99.90
2023-12-30T05:11:53.385Z,99.90
2023-12-30T05:16:55.476Z,99.90
2023-12-30T05:21:57.537Z,99.90
2023-12-30T05:27:01.110Z,99.90
2023-12-30T05:32:04.724Z,99.90
2023-12-30T05:37:07.136Z,99.90
2023-12-30T05:42:11.570Z,99.90
2023-12-30T05:47:13.503Z,99.90
2023-12-30T05:52:15.729Z,99.90
2023-12-30T05:57:19.196Z,99.90
2023-12-30T06:02:21.400Z,99.90
2023-12-30T06:07:23.610Z,99.90
2023-12-30T06:12:27.251Z,99.90
2023-12-30T06:17:29.589Z,99.90
2023-12-30T06:22:31.674Z,99.90
2023-12-30T06:27:35.050Z,99.90
2023-12-30T06:32:37.229Z,99.90
2023-12-30T06:37:39.381Z,99.90
2023-12-30T06:42:46.290Z,99.90
2023-12-30T06:47:48.478Z,99.90
2023-12-30T06:52:50.392Z,99.90
2023-12-30T06:57:54.143Z,99.90
2023-12-30T07:02:56.131Z,99.90
2023-12-30T07:08:00.489Z,99.90
2023-12-30T07:13:04.671Z,99.90
2023-12-30T07:18:08.068Z,99.90
2023-12-30T07:23:10.383Z,99.90
2023-12-30T07:28:14.710Z,99.90
2023-12-30T07:33:17.349Z,99.90
2023-12-30T07:38:19.656Z,99.90
2023-12-30T07:43:23.488Z,99.90
2023-12-30T07:48:26.376Z,99.90
2023-12-30T07:53:28.965Z,99.90
2023-12-30T07:58:32.682Z,99.90
2023-12-30T08:03:34.712Z,99.90
2023-12-30T08:08:36.834Z,99.90
2023-12-30T08:13:40.456Z,99.90
2023-12-30T08:18:42.551Z,99.90
2023-12-30T08:23:44.579Z,99.90
2023-12-30T08:28:48.167Z,99.90
2023-12-30T08:33:50.702Z,99.90
2023-12-30T08:38:53.081Z,99.90
2023-12-30T08:43:57.825Z,99.90
2023-12-30T08:49:01.965Z,99.90
2023-12-30T08:54:04.307Z,99.90
2023-12-30T08:59:08.362Z,99.90
2023-12-30T09:04:10.686Z,99.90
2023-12-30T09:09:13.777Z,99.90
2023-12-30T09:14:17.765Z,99.90
2023-12-30T09:19:20.510Z,99.90
2023-12-30T09:24:23.203Z,99.90
2023-12-30T09:29:26.848Z,99.90
2023-12-30T09:34:38.147Z,99.90
2023-12-30T09:46:07.147Z,99.90
2023-12-30T09:51:09.635Z,99.90
2023-12-30T09:56:13.294Z,99.90
2023-12-30T10:01:17.728Z,99.90
2023-12-30T10:06:23.713Z,99.90
2023-12-30T10:11:26.446Z,99.90
2023-12-30T10:16:31.800Z,99.90
2023-12-30T10:21:34.147Z,99.90
2023-12-30T10:26:38.777Z,99.90
2023-12-30T10:31:43.611Z,99.90
2023-12-30T10:36:45.777Z,99.90
2023-12-30T10:41:47.607Z,99.90
2023-12-30T10:46:53.291Z,99.90
2023-12-30T10:51:59.012Z,99.90
2023-12-30T10:57:05.395Z,99.90
2023-12-30T11:02:11.766Z,99.90
2023-12-30T11:07:16.923Z,99.90
2023-12-30T11:12:19.049Z,99.90
2023-12-30T11:17:38.275Z,99.90
2023-12-30T11:22:40.196Z,99.90
2023-12-30T11:27:42.673Z,99.90
2023-12-30T11:32:46.985Z,99.90
2023-12-30T11:37:54.394Z,99.90
2023-12-30T11:43:00.987Z,99.90
2023-12-30T11:48:05.114Z,99.90
2023-12-30T11:53:08.447Z,99.90
2023-12-30T11:58:10.867Z,99.90
2023-12-30T12:09:54.695Z,99.90
2023-12-30T12:14:56.849Z,99.90
2023-12-30T12:19:59.676Z,99.90
2023-12-30T12:25:04.335Z,99.90
2023-12-30T12:30:10.159Z,99.90
2023-12-30T12:35:12.853Z,99.90
2023-12-30T12:40:17.350Z,99.90
2023-12-30T12:45:19.903Z,99.90
2023-12-30T12:50:21.964Z,99.90
2023-12-30T12:55:25.406Z,99.70
2023-12-30T13:00:27.639Z,97.80
2023-12-30T13:05:29.661Z,95.20
2023-12-30T13:10:43.704Z,94.60
2023-12-30T13:22:08.419Z,90.90
2023-12-30T13:27:13.381Z,90.70
2023-12-30T13:32:16.585Z,91.10
2023-12-30T13:37:18.967Z,90.20
2023-12-30T13:42:23.166Z,89.20
2023-12-30T13:53:47.542Z,88.40
2023-12-30T13:58:51.131Z,89.30
2023-12-30T14:03:54.141Z,88.30
2023-12-30T14:08:56.315Z,90.00
2023-12-30T14:14:03.198Z,90.60
2023-12-30T14:25:28.317Z,92.50
2023-12-30T14:30:32.184Z,95.20
2023-12-30T14:35:34.281Z,96.40
2023-12-30T14:46:58.900Z,99.30
2023-12-30T14:52:01.040Z,99.90
2023-12-30T14:57:04.899Z,99.90
2023-12-30T15:02:08.344Z,99.90
2023-12-30T15:07:10.899Z,99.90
2023-12-30T15:12:13.045Z,99.90
2023-12-30T15:17:16.478Z,99.90
2023-12-30T15:22:19.477Z,99.90
2023-12-30T15:27:22.370Z,99.90
2023-12-30T15:32:26.063Z,99.90
2023-12-30T15:37:28.546Z,99.90
2023-12-30T15:42:30.740Z,99.90
2023-12-30T15:47:34.157Z,99.90
2023-12-30T15:52:36.395Z,99.90
2023-12-30T15:57:38.358Z,99.90
2023-12-30T16:09:04.356Z,99.90
2023-12-30T16:14:06.972Z,99.90
2023-12-30T16:19:10.182Z,99.90
2023-12-30T16:24:16.646Z,99.90
2023-12-30T16:29:21.048Z,99.90
2023-12-30T16:34:26.089Z,99.90
2023-12-30T16:39:32.343Z,99.90
2023-12-30T16:44:35.609Z,99.90
2023-12-30T16:49:37.636Z,99.90
2023-12-30T16:54:41.773Z,99.90
2023-12-30T16:59:45.036Z,99.90
2023-12-30T17:04:47.959Z,99.90
2023-12-30T17:09:52.489Z,99.90
2023-12-30T17:14:55.793Z,99.90
2023-12-30T17:19:58.641Z,99.90
2023-12-30T17:25:02.493Z,99.90
2023-12-30T17:30:05.891Z,99.90
2023-12-30T17:35:09.890Z,99.90
2023-12-30T17:40:18.994Z,99.90
2023-12-30T17:45:21.356Z,99.90
2023-12-30T17:50:24.039Z,99.90
2023-12-30T17:55:32.922Z,99.90
2023-12-30T18:00:37.154Z,99.90
2023-12-30T18:05:40.270Z,99.90
2023-12-30T18:10:45.602Z,99.90
2023-12-30T18:15:49.774Z,99.90
2023-12-30T18:20:54.369Z,99.90
2023-12-30T18:25:58.474Z,99.90
2023-12-30T18:31:03.040Z,99.90
2023-12-30T18:36:05.786Z,99.90
2023-12-30T18:41:10.223Z,99.90
2023-12-30T18:46:13.990Z,99.90
2023-12-30T18:51:17.605Z,99.90
2023-12-30T18:56:23.163Z,99.90
2023-12-30T19:01:26.536Z,99.90
2023-12-30T19:06:31.620Z,99.90
2023-12-30T19:11:38.065Z,99.90
2023-12-30T19:16:41.057Z,99.90
2023-12-30T19:21:45.076Z,99.90
2023-12-30T19:26:49.121Z,99.90
2023-12-30T19:31:51.700Z,99.90
2023-12-30T19:36:54.680Z,99.90
2023-12-30T19:41:59.281Z,99.90
2023-12-30T19:47:03.433Z,99.90
2023-12-30T19:52:07.084Z,99.90
2023-12-30T20:04:11.294Z,99.90
2023-12-30T20:15:11.653Z,99.90
2023-12-30T20:20:54.813Z,99.90
2023-12-30T20:31:56.155Z,99.90
2023-12-30T20:37:27.388Z,99.90
2023-12-30T20:42:35.552Z,99.90
2023-12-30T20:47:40.590Z,99.90
2023-12-30T20:52:46.553Z,99.90
2023-12-30T20:57:51.897Z,99.90
2023-12-30T21:02:54.243Z,99.90
2023-12-30T21:07:58.849Z,99.90
2023-12-30T21:13:01.779Z,99.90
2023-12-30T21:18:08.383Z,99.90
2023-12-30T21:23:12.604Z,99.90
2023-12-30T21:28:14.781Z,99.90
2023-12-30T21:33:17.594Z,99.90
2023-12-30T21:38:22.595Z,99.90
2023-12-30T21:43:25.833Z,99.90
2023-12-30T21:48:28.353Z,99.90
2023-12-30T21:53:32.956Z,99.90
2023-12-30T21:58:35.373Z,99.90
2023-12-30T22:03:37.951Z,99.90
2023-12-30T22:08:41.646Z,99.90
2023-12-30T22:13:44.366Z,99.90
2023-12-30T22:18:46.946Z,99.90
2023-12-30T22:23:50.909Z,99.90
2023-12-30T22:28:53.014Z,99.90
2023-12-30T22:33:55.603Z,99.90
2023-12-30T22:38:59.684Z,99.90
2023-12-30T22:44:01.357Z,99.90
2023-12-30T22:49:03.530Z,99.90
2023-12-30T22:54:07.516Z,99.90
2023-12-30T22:59:10.858Z,99.90
2023-12-30T23:04:14.429Z,99.90
2023-12-30T23:09:18.464Z,99.90
2023-12-30T23:14:20.580Z,99.90
2023-12-30T23:19:22.902Z,99.90
2023-12-30T23:24:26.559Z,99.90
2023-12-30T23:29:29.699Z,99.90
2023-12-30T23:34:42.458Z,99.90
2023-12-30T23:39:49.677Z,99.90
2023-12-30T23:44:51.888Z,99.90
2023-12-30T23:56:16.873Z,99.90
